Time;durP1;ratioP1;P1;durP2;ratioP2;P2;SDS_P1;SDS_P2;PMS_P1;PMS_P2;Temp;Humidity;BMP_temperature;BMP_pressure;BME280_temperature;BME280_humidity;BME280_pressure;Samples;Min_cycle;Max_cycle;Signal;HPM_P1;HPM_P2
2022/07/21 00:00:20;;;;;;;42.90;30.00;;;;;;;;;;4895441;29;20052;-69
2022/07/21 00:02:48;;;;;;;39.80;30.08;;;;;;;;;;4895283;29;20048;-69
2022/07/21 00:05:14;;;;;;;39.50;29.33;;;;;;;;;;4895484;29;20136;-70
2022/07/21 00:07:41;;;;;;;46.83;30.92;;;;;;;;;;4879824;29;20056;-69
2022/07/21 00:10:08;;;;;;;37.22;28.30;;;;;;;;;;4896282;29;20053;-69
2022/07/21 00:12:35;;;;;;;33.13;26.60;;;;;;;;;;4864658;29;20049;-70
2022/07/21 00:15:04;;;;;;;38.88;26.88;;;;;;;;;;4879860;29;20500;-69
2022/07/21 00:17:30;;;;;;;34.63;24.92;;;;;;;;;;4883714;29;20099;-69
2022/07/21 00:19:57;;;;;;;30.52;24.35;;;;;;;;;;4900508;29;20059;-69
2022/07/21 00:22:24;;;;;;;29.83;24.98;;;;;;;;;;4900588;29;20556;-70
2022/07/21 00:24:50;;;;;;;32.03;24.00;;;;;;;;;;4900020;29;20056;-69
2022/07/21 00:27:17;;;;;;;31.33;24.60;;;;;;;;;;4898915;29;20060;-69
2022/07/21 00:29:44;;;;;;;34.50;25.90;;;;;;;;;;4883146;29;20500;-69
2022/07/21 00:32:11;;;;;;;42.42;27.52;;;;;;;;;;4898847;29;20048;-69
2022/07/21 00:34:37;;;;;;;33.22;25.00;;;;;;;;;;4900294;29;20063;-70
2022/07/21 00:37:04;;;;;;;33.83;26.15;;;;;;;;;;4898724;29;20520;-70
2022/07/21 00:39:31;;;;;;;30.23;24.77;;;;;;;;;;4898717;29;20420;-69
2022/07/21 00:41:58;;;;;;;36.13;24.90;;;;;;;;;;4900119;29;20052;-70
2022/07/21 00:44:26;;;;;;;31.80;24.65;;;;;;;;;;4898690;29;20060;-69
2022/07/21 00:46:53;;;;;;;32.88;26.45;;;;;;;;;;4880058;29;20053;-69
2022/07/21 00:49:20;;;;;;;32.85;24.35;;;;;;;;;;4880022;29;20056;-69
2022/07/21 00:51:48;;;;;;;27.23;23.67;;;;;;;;;;4879966;29;20049;-69
2022/07/21 00:54:16;;;;;;;31.80;24.05;;;;;;;;;;4879825;29;20053;-69
2022/07/21 00:56:43;;;;;;;34.08;24.45;;;;;;;;;;4879802;29;20075;-69
2022/07/21 00:59:10;;;;;;;41.45;24.88;;;;;;;;;;4880786;29;20531;-69
2022/07/21 01:01:37;;;;;;;37.70;26.00;;;;;;;;;;4894938;29;20048;-69
2022/07/21 01:04:04;;;;;;;33.42;24.25;;;;;;;;;;4879683;29;20053;-69
2022/07/21 01:06:30;;;;;;;35.40;25.67;;;;;;;;;;4880765;29;20064;-69
2022/07/21 01:08:57;;;;;;;26.55;23.38;;;;;;;;;;4879478;29;20061;-69
2022/07/21 01:11:26;;;;;;;36.08;24.48;;;;;;;;;;4894788;29;20136;-69
2022/07/21 01:13:53;;;;;;;31.42;24.33;;;;;;;;;;4882581;29;20048;-69
2022/07/21 01:16:20;;;;;;;33.58;23.98;;;;;;;;;;4897949;29;20135;-70
2022/07/21 01:18:46;;;;;;;30.80;24.90;;;;;;;;;;4882411;29;20057;-69
2022/07/21 01:21:22;;;;;;;36.08;25.13;;;;;;;;;;4899302;29;20056;-69
2022/07/21 01:23:49;;;;;;;29.05;24.38;;;;;;;;;;4899214;29;20150;-69
2022/07/21 01:26:15;;;;;;;29.90;24.67;;;;;;;;;;4897810;29;20496;-69
2022/07/21 01:28:42;;;;;;;33.15;25.40;;;;;;;;;;4897971;29;20059;-69
2022/07/21 01:31:08;;;;;;;30.63;23.83;;;;;;;;;;4899056;29;20551;-69
2022/07/21 01:33:35;;;;;;;31.08;25.25;;;;;;;;;;4882448;29;20087;-69
2022/07/21 01:36:02;;;;;;;32.15;24.63;;;;;;;;;;4899197;29;20052;-69
2022/07/21 01:41:29;;;;;;;34.22;24.55;;;;;;;;;;4899367;29;20056;-69
2022/07/21 01:44:06;;;;;;;26.02;23.02;;;;;;;;;;4897840;29;20060;-69
2022/07/21 01:46:36;;;;;;;29.23;22.52;;;;;;;;;;4867079;29;20056;-70
2022/07/21 01:49:04;;;;;;;30.15;24.00;;;;;;;;;;4897336;29;20512;-69
2022/07/21 01:51:31;;;;;;;30.15;22.40;;;;;;;;;;4897410;29;20053;-69
2022/07/21 01:53:59;;;;;;;27.70;23.60;;;;;;;;;;4898459;29;20393;-69
2022/07/21 01:56:26;;;;;;;31.65;23.65;;;;;;;;;;4898725;29;20060;-69
2022/07/21 01:58:55;;;;;;;26.17;22.48;;;;;;;;;;4882044;29;20412;-69
2022/07/21 02:01:23;;;;;;;27.02;22.58;;;;;;;;;;4881861;29;20496;-69
2022/07/21 02:03:50;;;;;;;26.55;22.73;;;;;;;;;;4881991;29;20115;-69
2022/07/21 02:06:17;;;;;;;27.90;21.50;;;;;;;;;;4897229;29;20095;-69
2022/07/21 02:08:44;;;;;;;26.58;22.48;;;;;;;;;;4897207;29;20058;-69
2022/07/21 02:11:12;;;;;;;24.85;21.83;;;;;;;;;;4881711;29;20052;-69
2022/07/21 02:13:38;;;;;;;26.25;21.55;;;;;;;;;;4897062;29;20055;-69
2022/07/21 02:16:05;;;;;;;23.00;20.05;;;;;;;;;;4897234;29;20057;-69
2022/07/21 02:18:32;;;;;;;23.25;19.95;;;;;;;;;;4881320;29;20116;-69
2022/07/21 02:20:59;;;;;;;23.85;20.98;;;;;;;;;;4881415;29;20053;-70
2022/07/21 02:23:26;;;;;;;24.10;19.83;;;;;;;;;;4898299;29;20056;-69
2022/07/21 02:25:53;;;;;;;31.05;21.85;;;;;;;;;;4898296;29;20083;-69
2022/07/21 02:28:20;;;;;;;27.63;21.05;;;;;;;;;;4898024;29;20177;-70
2022/07/21 02:30:47;;;;;;;25.08;21.08;;;;;;;;;;4896822;29;20048;-69
2022/07/21 02:33:14;;;;;;;23.00;19.75;;;;;;;;;;4881344;29;20531;-69
2022/07/21 02:35:41;;;;;;;25.52;20.88;;;;;;;;;;4882257;29;20061;-69
2022/07/21 02:38:08;;;;;;;23.83;19.40;;;;;;;;;;4880843;29;20056;-69
2022/07/21 02:40:34;;;;;;;26.00;19.17;;;;;;;;;;4896565;29;20064;-69
2022/07/21 02:43:02;;;;;;;24.90;19.98;;;;;;;;;;4896564;29;20048;-69
2022/07/21 02:45:28;;;;;;;26.83;21.58;;;;;;;;;;4881178;29;20504;-69
2022/07/21 02:48:01;;;;;;;27.98;22.17;;;;;;;;;;4880794;29;20501;-68
2022/07/21 02:50:32;;;;;;;27.92;20.30;;;;;;;;;;4896599;29;20063;-68
2022/07/21 02:53:01;;;;;;;25.40;20.75;;;;;;;;;;4880893;29;20504;-69
2022/07/21 02:55:32;;;;;;;28.13;21.38;;;;;;;;;;4896295;29;20052;-69
2022/07/21 02:58:07;;;;;;;25.40;20.38;;;;;;;;;;4880673;29;20135;-68
2022/07/21 03:00:36;;;;;;;29.80;22.95;;;;;;;;;;4881009;29;20497;-68
2022/07/21 03:03:03;;;;;;;26.67;21.08;;;;;;;;;;4895872;29;20088;-68
2022/07/21 03:05:31;;;;;;;27.13;21.98;;;;;;;;;;4896399;29;20052;-69
2022/07/21 03:07:57;;;;;;;24.35;20.77;;;;;;;;;;4896026;29;20516;-68
2022/07/21 03:10:24;;;;;;;27.48;22.65;;;;;;;;;;4880609;29;20500;-68
2022/07/21 03:12:51;;;;;;;26.00;22.42;;;;;;;;;;4897394;29;20052;-69
2022/07/21 03:15:18;;;;;;;29.52;22.63;;;;;;;;;;4897056;29;20071;-69
2022/07/21 03:17:45;;;;;;;29.23;23.10;;;;;;;;;;4880003;29;20052;-69
2022/07/21 03:20:12;;;;;;;27.65;22.55;;;;;;;;;;4895950;29;20052;-69
2022/07/21 03:22:38;;;;;;;34.80;25.35;;;;;;;;;;4880477;29;20060;-69
2022/07/21 03:25:05;;;;;;;34.33;24.27;;;;;;;;;;4896006;29;20068;-69
2022/07/21 03:27:35;;;;;;;28.42;22.60;;;;;;;;;;4896743;29;20052;-69
2022/07/21 03:30:06;;;;;;;24.90;22.13;;;;;;;;;;4895883;29;20063;-69
2022/07/21 03:32:34;;;;;;;27.20;21.27;;;;;;;;;;4865474;29;20057;-69
2022/07/21 03:35:01;;;;;;;23.60;20.20;;;;;;;;;;4880217;29;20052;-68
2022/07/21 03:37:27;;;;;;;24.77;18.90;;;;;;;;;;4925042;23;20048;-75
2022/07/21 03:39:54;;;;;;;24.67;20.75;;;;;;;;;;4916149;29;20063;-76
2022/07/21 03:42:21;;;;;;;27.50;20.88;;;;;;;;;;4916349;29;20048;-75
2022/07/21 03:44:48;;;;;;;22.70;20.15;;;;;;;;;;4930986;29;20401;-75
2022/07/21 03:47:14;;;;;;;30.13;22.55;;;;;;;;;;4916468;29;20055;-76
2022/07/21 03:49:41;;;;;;;29.10;23.10;;;;;;;;;;4914769;29;20424;-76
2022/07/21 03:52:08;;;;;;;31.42;23.95;;;;;;;;;;4915063;29;20736;-76
2022/07/21 03:54:35;;;;;;;28.25;24.00;;;;;;;;;;4914734;29;20427;-75
2022/07/21 03:57:02;;;;;;;32.55;23.98;;;;;;;;;;4916059;29;20491;-76
2022/07/21 03:59:28;;;;;;;31.05;24.25;;;;;;;;;;4915914;29;20048;-76
2022/07/21 04:01:55;;;;;;;29.38;24.33;;;;;;;;;;4914686;29;20047;-75
2022/07/21 04:04:21;;;;;;;31.67;23.98;;;;;;;;;;4915904;29;20051;-73
2022/07/21 04:06:48;;;;;;;29.05;24.67;;;;;;;;;;4915576;29;20055;-73
2022/07/21 04:09:17;;;;;;;33.00;25.70;;;;;;;;;;4915352;29;20536;-73
2022/07/21 04:11:44;;;;;;;31.60;25.95;;;;;;;;;;4915941;29;20048;-73
2022/07/21 04:14:11;;;;;;;33.88;25.55;;;;;;;;;;4915670;29;20052;-73
2022/07/21 04:16:38;;;;;;;33.92;25.15;;;;;;;;;;4915668;29;20122;-73
2022/07/21 04:19:05;;;;;;;28.63;22.70;;;;;;;;;;4915608;29;20104;-73
2022/07/21 04:21:31;;;;;;;32.05;24.42;;;;;;;;;;4915486;29;20056;-73
2022/07/21 04:23:58;;;;;;;33.53;24.90;;;;;;;;;;4914449;29;20426;-73
2022/07/21 04:26:27;;;;;;;31.65;24.15;;;;;;;;;;4915617;29;20137;-73
2022/07/21 04:28:54;;;;;;;27.70;24.13;;;;;;;;;;4915518;29;20071;-73
2022/07/21 04:31:21;;;;;;;29.85;24.05;;;;;;;;;;4915627;29;20495;-73
2022/07/21 04:33:48;;;;;;;25.15;22.15;;;;;;;;;;4915540;29;20048;-73
2022/07/21 04:36:15;;;;;;;27.73;22.25;;;;;;;;;;4915503;29;20436;-74
2022/07/21 04:38:41;;;;;;;27.08;21.52;;;;;;;;;;4915122;29;20555;-74
2022/07/21 04:41:08;;;;;;;25.45;22.58;;;;;;;;;;4915320;29;20063;-74
2022/07/21 04:43:35;;;;;;;30.23;22.05;;;;;;;;;;4915383;29;20059;-74
2022/07/21 04:46:02;;;;;;;28.20;24.17;;;;;;;;;;4915288;29;20112;-74
2022/07/21 04:48:28;;;;;;;29.70;24.63;;;;;;;;;;4915340;29;20079;-74
2022/07/21 04:50:55;;;;;;;25.85;22.45;;;;;;;;;;4915158;29;20062;-74
2022/07/21 04:53:22;;;;;;;26.98;21.88;;;;;;;;;;4915597;29;20139;-74
2022/07/21 04:55:49;;;;;;;25.48;22.30;;;;;;;;;;4915428;29;20052;-74
2022/07/21 04:58:16;;;;;;;27.70;22.65;;;;;;;;;;4914850;29;20078;-74
2022/07/21 05:00:43;;;;;;;29.80;23.63;;;;;;;;;;4915103;29;20523;-74
2022/07/21 05:03:12;;;;;;;31.42;23.50;;;;;;;;;;4918343;29;20052;-74
2022/07/21 05:05:39;;;;;;;38.15;26.13;;;;;;;;;;4918533;29;20364;-72
2022/07/21 05:08:06;;;;;;;33.35;26.15;;;;;;;;;;4917228;29;20052;-72
2022/07/21 05:10:33;;;;;;;33.38;25.50;;;;;;;;;;4918355;29;20056;-72
2022/07/21 05:13:00;;;;;;;34.38;25.38;;;;;;;;;;4917245;29;20429;-72
2022/07/21 05:15:27;;;;;;;35.38;25.75;;;;;;;;;;4917915;29;20083;-72
2022/07/21 05:17:54;;;;;;;30.15;25.15;;;;;;;;;;4917744;29;20423;-72
2022/07/21 05:20:20;;;;;;;29.63;24.40;;;;;;;;;;4918396;29;20070;-72
2022/07/21 05:22:47;;;;;;;32.63;25.17;;;;;;;;;;4918563;29;20059;-71
2022/07/21 05:25:14;;;;;;;27.52;24.45;;;;;;;;;;4918049;29;20048;-72
2022/07/21 05:27:41;;;;;;;27.42;23.13;;;;;;;;;;4918191;29;20048;-72
2022/07/21 05:30:09;;;;;;;29.95;23.38;;;;;;;;;;4917592;29;20079;-71
2022/07/21 05:32:35;;;;;;;31.33;24.33;;;;;;;;;;4917956;29;20503;-71
2022/07/21 05:35:10;;;;;;;28.58;22.98;;;;;;;;;;4918220;29;20052;-71
2022/07/21 05:37:40;;;;;;;25.38;21.85;;;;;;;;;;4917722;29;20059;-71
2022/07/21 05:40:08;;;;;;;23.52;20.55;;;;;;;;;;4917638;29;20071;-72
2022/07/21 05:42:34;;;;;;;23.33;20.98;;;;;;;;;;4916732;29;20427;-72
2022/07/21 05:45:01;;;;;;;20.65;18.52;;;;;;;;;;4917979;29;20052;-72
2022/07/21 05:47:29;;;;;;;22.48;18.77;;;;;;;;;;4918546;29;20063;-73
2022/07/21 05:49:55;;;;;;;19.52;17.52;;;;;;;;;;4920091;29;20052;-72
2022/07/21 05:52:22;;;;;;;22.50;18.38;;;;;;;;;;4916286;29;20419;-73
2022/07/21 05:54:49;;;;;;;21.38;19.27;;;;;;;;;;4919063;29;20044;-73
2022/07/21 05:57:15;;;;;;;18.90;16.92;;;;;;;;;;4917847;29;20427;-74
2022/07/21 05:59:42;;;;;;;21.40;17.42;;;;;;;;;;4915906;29;20309;-73
2022/07/21 06:02:09;;;;;;;21.00;18.33;;;;;;;;;;4916251;29;20059;-73
2022/07/21 06:04:35;;;;;;;20.70;17.75;;;;;;;;;;4915297;29;20114;-73
2022/07/21 06:07:02;;;;;;;17.90;16.10;;;;;;;;;;4915888;29;20052;-73
2022/07/21 06:09:29;;;;;;;16.73;14.98;;;;;;;;;;4915143;29;20051;-74
2022/07/21 06:11:55;;;;;;;18.33;16.42;;;;;;;;;;4915679;29;20052;-74
2022/07/21 06:14:22;;;;;;;19.33;16.42;;;;;;;;;;4914791;29;20052;-74
2022/07/21 06:16:49;;;;;;;19.45;17.42;;;;;;;;;;4914683;29;20052;-74
2022/07/21 06:19:16;;;;;;;18.77;16.55;;;;;;;;;;4915283;29;20052;-73
2022/07/21 06:21:42;;;;;;;19.70;17.17;;;;;;;;;;4915311;29;20059;-73
2022/07/21 06:24:12;;;;;;;19.02;17.05;;;;;;;;;;4915334;29;20059;-73
2022/07/21 06:26:39;;;;;;;18.85;16.77;;;;;;;;;;4914957;29;20060;-73
2022/07/21 06:29:06;;;;;;;16.80;15.07;;;;;;;;;;4914846;29;20518;-73
2022/07/21 06:31:33;;;;;;;16.50;14.32;;;;;;;;;;4914706;29;20048;-73
2022/07/21 06:34:00;;;;;;;14.13;12.73;;;;;;;;;;4915391;29;20052;-74
2022/07/21 06:36:27;;;;;;;16.63;13.38;;;;;;;;;;4915045;29;20063;-73
2022/07/21 06:38:53;;;;;;;14.50;12.88;;;;;;;;;;4914289;29;20060;-73
2022/07/21 06:41:20;;;;;;;14.60;12.45;;;;;;;;;;4896191;29;20049;-70
2022/07/21 06:43:47;;;;;;;13.43;12.23;;;;;;;;;;4895978;29;20044;-71
2022/07/21 06:46:14;;;;;;;13.65;11.65;;;;;;;;;;4896305;29;20056;-70
2022/07/21 06:48:40;;;;;;;12.23;11.00;;;;;;;;;;4895884;29;20048;-69
2022/07/21 06:51:07;;;;;;;12.85;11.55;;;;;;;;;;4913194;29;20052;-69
2022/07/21 06:53:34;;;;;;;11.80;10.65;;;;;;;;;;4915357;29;20060;-71
2022/07/21 06:56:00;;;;;;;13.30;11.98;;;;;;;;;;4914362;29;20051;-70
2022/07/21 06:58:30;;;;;;;12.02;10.90;;;;;;;;;;4917222;29;20056;-70
2022/07/21 07:01:04;;;;;;;16.35;11.30;;;;;;;;;;4916883;29;20123;-70
2022/07/21 07:03:33;;;;;;;13.60;11.70;;;;;;;;;;4914868;29;20058;-69
2022/07/21 07:06:01;;;;;;;13.23;10.95;;;;;;;;;;4914375;29;20198;-69
2022/07/21 07:08:28;;;;;;;12.10;10.88;;;;;;;;;;4915554;29;20056;-73
2022/07/21 07:10:55;;;;;;;12.13;10.85;;;;;;;;;;4900060;29;20052;-70
2022/07/21 07:13:23;;;;;;;11.45;10.35;;;;;;;;;;4904594;29;20060;-70
2022/07/21 07:16:12;;;;;;;11.88;9.85;;;;;;;;;;4912162;29;20048;-71
2022/07/21 07:18:40;;;;;;;10.02;9.02;;;;;;;;;;4913819;29;20191;-71
2022/07/21 07:21:06;;;;;;;11.30;9.65;;;;;;;;;;4903996;29;20499;-67
2022/07/21 07:23:38;;;;;;;11.02;9.02;;;;;;;;;;4897380;29;20057;-68
2022/07/21 07:26:05;;;;;;;11.35;10.15;;;;;;;;;;4896425;29;20067;-68
2022/07/21 07:28:31;;;;;;;12.77;10.93;;;;;;;;;;4896351;29;20048;-69
2022/07/21 07:30:58;;;;;;;9.82;8.82;;;;;;;;;;4896935;29;20514;-68
2022/07/21 07:33:25;;;;;;;11.00;9.90;;;;;;;;;;4896998;29;20059;-68
2022/07/21 07:35:52;;;;;;;10.07;9.05;;;;;;;;;;4897365;29;20083;-69
2022/07/21 07:38:19;;;;;;;11.80;10.63;;;;;;;;;;4896620;29;20087;-68
2022/07/21 07:40:45;;;;;;;11.75;10.10;;;;;;;;;;4916148;29;20055;-67
2022/07/21 07:43:13;;;;;;;11.07;9.52;;;;;;;;;;4916040;29;20059;-67
2022/07/21 07:45:39;;;;;;;10.75;9.75;;;;;;;;;;4916081;29;20423;-67
2022/07/21 07:48:06;;;;;;;10.07;9.18;;;;;;;;;;4915869;29;20081;-68
2022/07/21 07:50:33;;;;;;;10.57;9.35;;;;;;;;;;4916054;29;20062;-67
2022/07/21 07:52:59;;;;;;;10.30;9.30;;;;;;;;;;4915803;29;20052;-67
2022/07/21 07:55:26;;;;;;;9.88;8.95;;;;;;;;;;4915948;29;20058;-67
2022/07/21 07:57:53;;;;;;;11.57;8.38;;;;;;;;;;4915641;29;20055;-67
2022/07/21 08:00:20;;;;;;;8.48;7.65;;;;;;;;;;4915462;29;20052;-67
2022/07/21 08:03:07;;;;;;;9.55;8.15;;;;;;;;;;4915675;29;20055;-67
2022/07/21 08:05:33;;;;;;;9.00;8.07;;;;;;;;;;4914801;29;20059;-67
2022/07/21 08:08:00;;;;;;;9.27;7.40;;;;;;;;;;4915649;29;20052;-67
2022/07/21 08:10:30;;;;;;;8.07;7.28;;;;;;;;;;4915822;29;20052;-68
2022/07/21 08:13:08;;;;;;;7.18;6.40;;;;;;;;;;4900918;29;20059;-68
2022/07/21 08:15:36;;;;;;;8.52;7.35;;;;;;;;;;4915991;29;20052;-68
2022/07/21 08:18:03;;;;;;;6.80;6.10;;;;;;;;;;4916028;29;20439;-68
2022/07/21 08:20:30;;;;;;;6.97;6.28;;;;;;;;;;4915700;29;20052;-67
2022/07/21 08:22:56;;;;;;;6.63;6.03;;;;;;;;;;4915772;29;20504;-68
2022/07/21 08:25:23;;;;;;;6.82;6.15;;;;;;;;;;4915504;29;20060;-67
2022/07/21 08:27:50;;;;;;;8.55;6.65;;;;;;;;;;4915427;29;20060;-67
2022/07/21 08:30:16;;;;;;;6.88;6.03;;;;;;;;;;4915882;29;20460;-67
2022/07/21 08:32:43;;;;;;;6.72;6.03;;;;;;;;;;4915496;29;20522;-67
2022/07/21 08:35:10;;;;;;;7.72;6.93;;;;;;;;;;4915518;29;20052;-68
2022/07/21 08:37:38;;;;;;;9.23;6.22;;;;;;;;;;4917845;29;20075;-67
2022/07/21 08:40:06;;;;;;;8.27;6.47;;;;;;;;;;4919183;29;20052;-67
2022/07/21 08:42:33;;;;;;;8.70;5.97;;;;;;;;;;4919602;29;20503;-68
2022/07/21 08:44:59;;;;;;;8.18;5.47;;;;;;;;;;4919514;29;20052;-68
2022/07/21 08:47:26;;;;;;;6.30;5.70;;;;;;;;;;4918079;29;20059;-67
2022/07/21 08:49:54;;;;;;;7.43;5.90;;;;;;;;;;4919017;29;20059;-68
2022/07/21 08:52:20;;;;;;;6.95;6.30;;;;;;;;;;4917932;29;20059;-68
2022/07/21 08:54:47;;;;;;;7.50;5.88;;;;;;;;;;4918815;29;20060;-68
2022/07/21 08:57:16;;;;;;;7.10;6.10;;;;;;;;;;4918873;29;20052;-68
2022/07/21 08:59:43;;;;;;;6.60;5.50;;;;;;;;;;4918976;29;20204;-68
2022/07/21 09:02:31;;;;;;;7.03;5.32;;;;;;;;;;4918929;29;20567;-68
2022/07/21 09:04:58;;;;;;;6.88;4.75;;;;;;;;;;4917942;29;20104;-68
2022/07/21 09:07:24;;;;;;;6.13;4.82;;;;;;;;;;4918701;29;20052;-68
2022/07/21 09:09:59;;;;;;;6.28;5.03;;;;;;;;;;4918772;29;20067;-67
2022/07/21 09:12:26;;;;;;;6.05;5.25;;;;;;;;;;4919734;29;20060;-68
2022/07/21 09:15:12;;;;;;;6.78;5.05;;;;;;;;;;4918924;29;20054;-67
2022/07/21 09:17:39;;;;;;;7.78;5.60;;;;;;;;;;4899587;29;20061;-67
2022/07/21 09:20:26;;;;;;;6.05;5.18;;;;;;;;;;4899662;29;20060;-72
2022/07/21 09:23:10;;;;;;;5.50;5.00;;;;;;;;;;4910129;29;20048;-67
2022/07/21 09:25:47;;;;;;;7.22;5.50;;;;;;;;;;4917098;29;20059;-68
2022/07/21 09:28:22;;;;;;;5.53;5.03;;;;;;;;;;4907345;29;20048;-68
2022/07/21 09:31:01;;;;;;;5.55;5.05;;;;;;;;;;4918394;29;20048;-68
2022/07/21 09:33:31;;;;;;;7.15;5.60;;;;;;;;;;4917709;29;20048;-67
2022/07/21 09:36:09;;;;;;;6.13;5.35;;;;;;;;;;4917869;29;20044;-68
2022/07/21 09:38:41;;;;;;;6.15;4.88;;;;;;;;;;4939881;23;20518;-69
2022/07/21 09:41:13;;;;;;;7.13;5.85;;;;;;;;;;4916332;29;20048;-69
2022/07/21 09:43:45;;;;;;;5.32;4.82;;;;;;;;;;4917947;29;20052;-69
2022/07/21 09:46:14;;;;;;;6.57;4.85;;;;;;;;;;4917785;29;20056;-69
2022/07/21 09:48:43;;;;;;;5.57;4.57;;;;;;;;;;4916068;29;20058;-69
2022/07/21 09:51:26;;;;;;;6.03;5.00;;;;;;;;;;4916810;29;20400;-69
2022/07/21 09:54:05;;;;;;;4.95;4.30;;;;;;;;;;4917285;29;20051;-69
2022/07/21 09:56:34;;;;;;;5.78;4.40;;;;;;;;;;4937518;29;20056;-69
2022/07/21 09:59:01;;;;;;;4.85;4.35;;;;;;;;;;4917278;29;20052;-69
2022/07/21 10:01:28;;;;;;;6.25;4.25;;;;;;;;;;4917426;29;20056;-69
2022/07/21 10:03:57;;;;;;;4.32;3.95;;;;;;;;;;4917176;29;20044;-69
2022/07/21 10:06:29;;;;;;;4.80;4.38;;;;;;;;;;4916879;29;20063;-69
2022/07/21 10:08:57;;;;;;;4.93;4.32;;;;;;;;;;4915905;29;20388;-70
2022/07/21 10:11:24;;;;;;;5.18;4.68;;;;;;;;;;4917209;29;20499;-70
2022/07/21 10:13:55;;;;;;;4.95;3.85;;;;;;;;;;4917047;29;20139;-71
2022/07/21 10:16:22;;;;;;;6.53;4.63;;;;;;;;;;4904636;29;20503;-69
2022/07/21 10:19:00;;;;;;;5.65;3.85;;;;;;;;;;4897762;29;20063;-68
2022/07/21 10:21:45;;;;;;;6.65;4.45;;;;;;;;;;4915218;29;20052;-68
2022/07/21 10:24:12;;;;;;;5.43;3.53;;;;;;;;;;4896951;29;20487;-67
2022/07/21 10:26:59;;;;;;;7.50;4.88;;;;;;;;;;4915473;29;20120;-67
2022/07/21 10:29:47;;;;;;;5.85;4.57;;;;;;;;;;4914282;29;20134;-67
2022/07/21 10:32:15;;;;;;;5.15;4.65;;;;;;;;;;4914840;29;20518;-67
2022/07/21 10:34:42;;;;;;;5.63;4.65;;;;;;;;;;4915034;29;20051;-67
2022/07/21 10:37:09;;;;;;;5.63;4.00;;;;;;;;;;4916560;29;20047;-68
2022/07/21 10:39:37;;;;;;;6.53;4.53;;;;;;;;;;4912812;29;20431;-70
2022/07/21 10:42:16;;;;;;;5.88;4.95;;;;;;;;;;4903598;29;20048;-70
2022/07/21 10:44:45;;;;;;;5.68;4.80;;;;;;;;;;4913497;29;20048;-70
2022/07/21 10:47:24;;;;;;;4.32;3.83;;;;;;;;;;4912734;29;20151;-71
2022/07/21 10:49:58;;;;;;;3.97;3.67;;;;;;;;;;4910334;29;20059;-70
2022/07/21 10:52:41;;;;;;;5.95;4.45;;;;;;;;;;4912583;29;20056;-71
2022/07/21 10:55:11;;;;;;;5.20;4.28;;;;;;;;;;4912771;29;20052;-70
2022/07/21 10:57:38;;;;;;;5.78;4.38;;;;;;;;;;4912760;29;20068;-71
2022/07/21 11:00:22;;;;;;;4.93;3.95;;;;;;;;;;4913286;29;20044;-70
2022/07/21 11:02:55;;;;;;;5.07;3.80;;;;;;;;;;4913572;29;20418;-68
2022/07/21 11:05:22;;;;;;;;;;;;;;;;;;4912876;29;20052;-68
2022/07/21 11:08:13;;;;;;;5.40;4.30;;;;;;;;;;4914625;29;20310;-68
2022/07/21 11:10:44;;;;;;;4.10;3.70;;;;;;;;;;4915130;29;20052;-68
2022/07/21 11:13:11;;;;;;;5.10;3.90;;;;;;;;;;4915447;29;20059;-68
2022/07/21 11:15:57;;;;;;;4.82;3.80;;;;;;;;;;4914595;29;20444;-68
2022/07/21 11:18:27;;;;;;;4.38;3.97;;;;;;;;;;4914053;29;20054;-69
2022/07/21 11:21:09;;;;;;;5.97;4.22;;;;;;;;;;4915059;29;20063;-68
2022/07/21 11:23:39;;;;;;;4.47;3.58;;;;;;;;;;4911127;29;20060;-69
2022/07/21 11:26:07;;;;;;;4.07;3.30;;;;;;;;;;4914433;29;20059;-67
2022/07/21 11:28:34;;;;;;;5.07;3.13;;;;;;;;;;4913848;29;20059;-67
2022/07/21 11:31:18;;;;;;;4.28;3.40;;;;;;;;;;4914844;29;20048;-67
2022/07/21 11:33:46;;;;;;;4.57;3.70;;;;;;;;;;4914355;29;20056;-67
2022/07/21 11:36:30;;;;;;;4.13;3.10;;;;;;;;;;4914240;29;20491;-67
2022/07/21 11:39:08;;;;;;;4.53;3.80;;;;;;;;;;4912879;29;20052;-68
2022/07/21 11:41:35;;;;;;;4.07;3.20;;;;;;;;;;4914150;29;20051;-67
2022/07/21 11:44:05;;;;;;;4.82;3.22;;;;;;;;;;4912274;29;20062;-67
2022/07/21 11:46:52;;;;;;;7.82;4.15;;;;;;;;;;4914367;29;20063;-67
2022/07/21 11:49:19;;;;;;;3.80;3.42;;;;;;;;;;4914002;29;20047;-67
2022/07/21 11:51:57;;;;;;;6.93;3.30;;;;;;;;;;4913329;29;20056;-66
2022/07/21 11:54:27;;;;;;;5.25;3.60;;;;;;;;;;4912670;29;20048;-67
2022/07/21 11:56:54;;;;;;;3.33;3.03;;;;;;;;;;4912789;29;20048;-67
2022/07/21 11:59:22;;;;;;;3.90;3.42;;;;;;;;;;4913061;29;20710;-67
2022/07/21 12:02:07;;;;;;;4.18;3.78;;;;;;;;;;4924656;29;20048;-67
2022/07/21 12:04:35;;;;;;;4.55;3.30;;;;;;;;;;4913330;29;20063;-67
2022/07/21 12:07:07;;;;;;;3.72;3.40;;;;;;;;;;4914391;29;20048;-67
2022/07/21 12:09:33;;;;;;;4.28;3.38;;;;;;;;;;4913564;29;20048;-67
2022/07/21 12:12:00;;;;;;;3.30;3.00;;;;;;;;;;4912975;29;20055;-67
2022/07/21 12:14:49;;;;;;;4.15;3.40;;;;;;;;;;4917668;29;20055;-67
2022/07/21 12:17:17;;;;;;;6.55;4.25;;;;;;;;;;4917879;29;20048;-67
2022/07/21 12:19:44;;;;;;;4.03;3.45;;;;;;;;;;4914266;29;20052;-67
2022/07/21 12:22:11;;;;;;;4.20;3.75;;;;;;;;;;4916623;29;20427;-67
2022/07/21 12:24:48;;;;;;;4.38;3.38;;;;;;;;;;4911249;29;20056;-67
2022/07/21 12:27:16;;;;;;;4.38;3.40;;;;;;;;;;4916495;29;20052;-67
2022/07/21 12:29:43;;;;;;;5.45;4.45;;;;;;;;;;4917439;29;20051;-67
2022/07/21 12:32:10;;;;;;;4.97;3.78;;;;;;;;;;4917913;29;20074;-67
2022/07/21 12:34:52;;;;;;;5.78;4.20;;;;;;;;;;4895839;29;20048;-67
2022/07/21 12:37:19;;;;;;;4.18;3.88;;;;;;;;;;4915492;29;20059;-67
2022/07/21 12:40:06;;;;;;;4.68;4.18;;;;;;;;;;4915968;29;20052;-67
2022/07/21 12:42:38;;;;;;;4.80;4.30;;;;;;;;;;4916937;29;20052;-67
2022/07/21 12:45:20;;;;;;;4.97;4.55;;;;;;;;;;4917167;29;20056;-67
2022/07/21 12:48:05;;;;;;;;;;;;;;;;;;4914147;29;20063;-67
2022/07/21 12:50:32;;;;;;;4.93;4.40;;;;;;;;;;4916610;29;19938;-67
2022/07/21 12:52:59;;;;;;;5.05;4.50;;;;;;;;;;4910809;29;20052;-67
2022/07/21 12:55:25;;;;;;;5.82;4.43;;;;;;;;;;4917371;29;20452;-67
2022/07/21 12:57:52;;;;;;;5.00;4.38;;;;;;;;;;4916800;29;20519;-67
2022/07/21 13:00:19;;;;;;;4.53;4.13;;;;;;;;;;4916798;29;20052;-67
2022/07/21 13:02:52;;;;;;;5.05;4.32;;;;;;;;;;4917605;29;20058;-67
2022/07/21 13:05:20;;;;;;;4.50;4.10;;;;;;;;;;4914716;29;20048;-67
2022/07/21 13:07:46;;;;;;;4.25;3.85;;;;;;;;;;4916957;29;20048;-67
2022/07/21 13:10:13;;;;;;;4.38;3.58;;;;;;;;;;4916938;29;20056;-68
2022/07/21 13:12:40;;;;;;;4.20;3.83;;;;;;;;;;4914902;29;20059;-68
2022/07/21 13:15:07;;;;;;;4.53;4.03;;;;;;;;;;4916423;29;20072;-67
2022/07/21 13:17:33;;;;;;;5.93;4.13;;;;;;;;;;4917239;29;20052;-68
2022/07/21 13:20:00;;;;;;;4.25;3.58;;;;;;;;;;4916510;29;20056;-68
2022/07/21 13:22:32;;;;;;;3.85;3.53;;;;;;;;;;4916106;29;20056;-68
2022/07/21 13:24:59;;;;;;;4.88;4.20;;;;;;;;;;4916249;29;20048;-68
2022/07/21 13:27:26;;;;;;;4.22;3.47;;;;;;;;;;4898736;29;20049;-67
2022/07/21 13:29:52;;;;;;;4.07;3.65;;;;;;;;;;4898398;29;20060;-68
2022/07/21 13:32:19;;;;;;;4.40;3.97;;;;;;;;;;4899444;29;20061;-68
2022/07/21 13:34:46;;;;;;;4.45;3.65;;;;;;;;;;4899159;29;20465;-67
2022/07/21 13:37:32;;;;;;;4.22;3.50;;;;;;;;;;4917019;29;20112;-66
2022/07/21 13:39:59;;;;;;;4.05;3.63;;;;;;;;;;4917429;29;20510;-66
2022/07/21 13:42:46;;;;;;;4.05;3.63;;;;;;;;;;4917675;29;20106;-66
2022/07/21 13:45:27;;;;;;;4.50;3.33;;;;;;;;;;4917892;29;20131;-66
2022/07/21 13:47:53;;;;;;;5.35;3.17;;;;;;;;;;4917537;29;20063;-66
2022/07/21 13:50:20;;;;;;;4.32;3.70;;;;;;;;;;4917457;29;20051;-66
2022/07/21 13:52:47;;;;;;;6.20;3.90;;;;;;;;;;4917733;29;20055;-66
2022/07/21 13:55:13;;;;;;;4.15;3.17;;;;;;;;;;4917621;29;20052;-66
2022/07/21 13:57:40;;;;;;;4.28;3.53;;;;;;;;;;4917590;29;20056;-66
2022/07/21 14:00:08;;;;;;;3.95;3.63;;;;;;;;;;4917221;29;20052;-66
2022/07/21 14:02:35;;;;;;;3.88;3.35;;;;;;;;;;4917569;29;20056;-69
2022/07/21 14:05:03;;;;;;;3.65;3.35;;;;;;;;;;4917376;29;20052;-66
2022/07/21 14:07:30;;;;;;;3.42;2.90;;;;;;;;;;4917493;29;20052;-64
2022/07/21 14:09:57;;;;;;;3.85;3.40;;;;;;;;;;4917223;29;20063;-64
2022/07/21 14:12:23;;;;;;;5.15;3.10;;;;;;;;;;4917497;29;20052;-65
2022/07/21 14:14:50;;;;;;;3.83;3.10;;;;;;;;;;4917284;29;20648;-65
2022/07/21 14:17:17;;;;;;;3.47;2.88;;;;;;;;;;4917189;29;20059;-65
2022/07/21 14:19:46;;;;;;;5.03;3.47;;;;;;;;;;4916875;29;20048;-65
2022/07/21 14:22:14;;;;;;;4.45;3.00;;;;;;;;;;4917357;29;20060;-64
2022/07/21 14:27:26;;;;;;;3.60;3.22;;;;;;;;;;4916985;29;20139;-64
2022/07/21 14:29:54;;;;;;;6.55;3.38;;;;;;;;;;4916706;29;20056;-65
2022/07/21 14:32:22;;;;;;;3.42;3.13;;;;;;;;;;4916971;29;20519;-65
2022/07/21 14:34:50;;;;;;;4.35;3.40;;;;;;;;;;4916573;29;20063;-65
2022/07/21 14:37:18;;;;;;;3.20;3.00;;;;;;;;;;4916451;29;20048;-64
2022/07/21 14:39:46;;;;;;;5.70;3.30;;;;;;;;;;4916416;29;20747;-65
2022/07/21 14:42:23;;;;;;;3.40;3.13;;;;;;;;;;4916814;29;20052;-65
2022/07/21 14:44:49;;;;;;;5.45;3.00;;;;;;;;;;4916684;29;20059;-65
2022/07/21 14:47:16;;;;;;;3.80;2.97;;;;;;;;;;4916705;29;20056;-65